createdAt,value
2019-04-30T00:00:38.278Z,99.90
2019-04-30T00:03:11.474Z,99.90
2019-04-30T00:05:38.253Z,99.90
2019-04-30T00:08:06.756Z,99.90
2019-04-30T00:10:40.121Z,99.90
2019-04-30T00:13:10.410Z,99.90
2019-04-30T00:15:36.749Z,99.90
2019-04-30T00:18:05.547Z,99.90
2019-04-30T00:20:37.046Z,99.90
2019-04-30T00:23:05.257Z,99.90
2019-04-30T00:25:35.181Z,99.90
2019-04-30T00:28:05.241Z,99.90
2019-04-30T00:30:35.015Z,99.90
2019-04-30T00:33:05.805Z,99.90
2019-04-30T00:35:35.535Z,99.90
2019-04-30T00:38:05.067Z,99.90
2019-04-30T00:40:35.177Z,99.90
2019-04-30T00:43:05.255Z,99.90
2019-04-30T00:45:35.328Z,99.90
2019-04-30T00:48:06.045Z,99.90
2019-04-30T00:50:37.230Z,99.90
2019-04-30T00:53:07.270Z,99.90
2019-04-30T00:55:40.212Z,99.90
2019-04-30T00:58:05.950Z,99.90
2019-04-30T01:00:37.175Z,99.90
2019-04-30T01:03:15.320Z,99.90
2019-04-30T01:05:47.803Z,99.90
2019-04-30T01:08:15.396Z,99.90
2019-04-30T01:10:45.991Z,99.90
2019-04-30T01:13:14.587Z,99.90
2019-04-30T01:15:44.035Z,99.90
2019-04-30T01:18:13.266Z,99.90
2019-04-30T01:20:41.774Z,99.90
2019-04-30T01:23:12.944Z,99.90
2019-04-30T01:25:43.195Z,99.90
2019-04-30T01:28:16.421Z,99.90
2019-04-30T01:30:43.133Z,99.90
2019-04-30T01:33:11.901Z,99.90
2019-04-30T01:35:40.621Z,99.90
2019-04-30T01:38:12.619Z,99.90
2019-04-30T01:40:42.788Z,99.90
2019-04-30T01:43:12.322Z,99.90
2019-04-30T01:45:40.762Z,99.90
2019-04-30T01:48:12.621Z,99.90
2019-04-30T01:50:42.047Z,99.90
2019-04-30T01:53:13.122Z,99.90
2019-04-30T01:55:59.176Z,99.90
2019-04-30T01:58:30.154Z,99.90
2019-04-30T02:01:00.404Z,99.90
2019-04-30T02:03:29.297Z,99.90
2019-04-30T02:05:59.541Z,99.90
2019-04-30T02:08:29.524Z,99.90
2019-04-30T02:10:59.380Z,99.90
2019-04-30T02:13:29.480Z,99.90
2019-04-30T02:15:59.240Z,99.90
2019-04-30T02:18:29.643Z,99.90
2019-04-30T02:20:59.456Z,99.90
2019-04-30T02:23:29.748Z,99.90
2019-04-30T02:25:59.369Z,99.90
2019-04-30T02:28:28.988Z,99.90
2019-04-30T02:30:59.985Z,99.90
2019-04-30T02:33:30.659Z,99.90
2019-04-30T02:36:10.430Z,99.90
2019-04-30T02:38:40.741Z,99.90
2019-04-30T02:41:10.037Z,99.90
2019-04-30T02:43:40.958Z,99.90
2019-04-30T02:46:11.838Z,99.90
2019-04-30T02:48:42.003Z,99.90
2019-04-30T02:51:12.981Z,99.90
2019-04-30T02:54:00.566Z,99.90
2019-04-30T02:56:30.058Z,99.90
2019-04-30T02:59:00.378Z,99.90
2019-04-30T03:01:30.567Z,99.90
2019-04-30T03:03:59.778Z,99.90
2019-04-30T03:06:30.393Z,99.90
2019-04-30T03:09:01.152Z,99.90
2019-04-30T03:11:30.096Z,99.90
2019-04-30T03:13:59.377Z,99.90
2019-04-30T03:16:41.973Z,99.90
2019-04-30T03:19:29.547Z,99.90
2019-04-30T03:22:02.505Z,99.90
2019-04-30T03:24:31.040Z,99.90
2019-04-30T03:26:59.616Z,99.90
2019-04-30T03:29:30.270Z,99.90
2019-04-30T03:32:02.935Z,99.90
2019-04-30T03:34:32.785Z,99.90
2019-04-30T03:37:01.701Z,99.90
2019-04-30T03:39:29.699Z,99.90
2019-04-30T03:41:59.650Z,99.90
2019-04-30T03:44:31.577Z,99.90
2019-04-30T03:46:59.293Z,99.90
2019-04-30T03:49:29.937Z,99.90
2019-04-30T03:51:59.809Z,99.90
2019-04-30T03:54:29.290Z,99.90
2019-04-30T03:57:00.747Z,99.90
2019-04-30T03:59:30.270Z,99.90
2019-04-30T04:02:20.800Z,99.90
2019-04-30T04:04:52.595Z,99.90
2019-04-30T04:07:25.436Z,99.90
2019-04-30T04:09:59.771Z,99.90
2019-04-30T04:12:30.339Z,99.90
2019-04-30T04:15:03.251Z,99.90
2019-04-30T04:17:31.492Z,99.90
2019-04-30T04:19:59.789Z,99.90
2019-04-30T04:22:30.675Z,99.90
2019-04-30T04:25:00.069Z,99.90
2019-04-30T04:27:30.053Z,99.90
2019-04-30T04:30:01.162Z,99.90
2019-04-30T04:32:30.786Z,99.90
2019-04-30T04:35:00.348Z,99.90
2019-04-30T04:37:30.091Z,99.90
2019-04-30T04:39:59.693Z,99.90
2019-04-30T04:42:32.353Z,99.90
2019-04-30T04:44:59.534Z,99.90
2019-04-30T04:47:30.802Z,99.90
2019-04-30T04:50:00.765Z,99.90
2019-04-30T04:52:31.449Z,99.90
2019-04-30T04:55:00.367Z,99.90
2019-04-30T04:57:30.518Z,99.90
2019-04-30T05:00:05.026Z,99.90
2019-04-30T05:02:32.740Z,99.90
2019-04-30T05:05:01.329Z,99.90
2019-04-30T05:07:29.824Z,99.90
2019-04-30T05:10:00.539Z,99.90
2019-04-30T05:12:29.720Z,99.90
2019-04-30T05:14:59.767Z,99.90
2019-04-30T05:17:31.654Z,99.90
2019-04-30T05:19:58.935Z,99.90
2019-04-30T05:22:29.368Z,99.90
2019-04-30T05:24:58.907Z,99.90
2019-04-30T05:27:27.740Z,99.90
2019-04-30T05:29:56.210Z,99.90
2019-04-30T05:32:24.779Z,99.90
2019-04-30T05:34:53.333Z,99.90
2019-04-30T05:37:22.478Z,99.90
2019-04-30T05:39:51.057Z,99.90
2019-04-30T05:42:19.486Z,99.90
2019-04-30T05:44:49.667Z,99.90
2019-04-30T05:47:19.609Z,99.90
2019-04-30T05:49:48.985Z,99.90
2019-04-30T05:52:19.726Z,99.90
2019-04-30T05:54:48.804Z,99.90
2019-04-30T05:57:19.577Z,99.90
2019-04-30T05:59:48.878Z,99.90
2019-04-30T06:02:19.260Z,99.90
2019-04-30T06:04:48.891Z,99.90
2019-04-30T06:07:18.869Z,99.90
2019-04-30T06:09:59.694Z,99.90
2019-04-30T06:12:33.058Z,99.90
2019-04-30T06:15:19.442Z,99.90
2019-04-30T06:18:00.272Z,99.90
2019-04-30T06:20:23.989Z,99.90
2019-04-30T06:22:52.966Z,99.90
2019-04-30T06:25:31.830Z,99.90
2019-04-30T06:27:52.145Z,99.90
2019-04-30T06:30:20.735Z,99.90
2019-04-30T06:32:49.691Z,99.90
2019-04-30T06:35:19.355Z,99.90
2019-04-30T06:37:48.907Z,99.90
2019-04-30T06:40:19.619Z,99.90
2019-04-30T06:42:49.550Z,99.90
2019-04-30T06:45:19.129Z,99.90
2019-04-30T06:47:49.007Z,99.90
2019-04-30T06:50:19.362Z,99.90
2019-04-30T06:52:56.601Z,99.90
2019-04-30T06:55:19.265Z,99.90
2019-04-30T06:57:49.644Z,99.90
2019-04-30T07:00:32.675Z,99.90
2019-04-30T07:02:50.121Z,99.90
2019-04-30T07:05:18.735Z,99.90
2019-04-30T07:07:48.927Z,99.90
2019-04-30T07:10:20.503Z,99.90
2019-04-30T07:12:50.764Z,99.90
2019-04-30T07:15:19.730Z,99.90
2019-04-30T07:17:49.157Z,99.90
2019-04-30T07:20:19.099Z,99.90
2019-04-30T07:22:52.454Z,99.90
2019-04-30T07:25:19.536Z,99.90
2019-04-30T07:27:50.508Z,99.90
2019-04-30T07:30:19.256Z,99.90
2019-04-30T07:32:48.767Z,99.90
2019-04-30T07:35:19.307Z,99.90
2019-04-30T07:37:49.493Z,99.90
2019-04-30T07:40:19.022Z,99.90
2019-04-30T07:42:49.229Z,99.90
2019-04-30T07:45:19.438Z,99.90
2019-04-30T07:47:49.435Z,99.90
2019-04-30T07:50:21.039Z,99.90
2019-04-30T07:53:01.636Z,99.90
2019-04-30T07:55:19.596Z,99.90
2019-04-30T07:57:50.638Z,99.90
2019-04-30T08:00:19.356Z,99.40
2019-04-30T08:02:55.688Z,98.20
2019-04-30T08:05:25.817Z,97.90
2019-04-30T08:07:54.349Z,97.30
2019-04-30T08:10:23.031Z,97.00
2019-04-30T08:12:51.855Z,96.10
2019-04-30T08:15:20.675Z,96.40
2019-04-30T08:18:02.322Z,97.20
2019-04-30T08:20:19.785Z,98.30
2019-04-30T08:22:49.449Z,99.10
2019-04-30T08:25:21.275Z,98.40
2019-04-30T08:27:49.234Z,98.70
2019-04-30T08:30:26.220Z,98.30
2019-04-30T08:32:49.919Z,99.10
2019-04-30T08:35:19.661Z,98.50
2019-04-30T08:37:49.713Z,98.30
2019-04-30T08:40:19.014Z,98.30
2019-04-30T08:42:49.598Z,97.90
2019-04-30T08:45:19.689Z,98.30
2019-04-30T08:47:49.308Z,96.90
2019-04-30T08:50:20.036Z,95.70
2019-04-30T08:52:49.994Z,95.90
2019-04-30T08:55:21.942Z,96.70
2019-04-30T08:57:50.018Z,97.00
2019-04-30T09:00:19.605Z,96.70
2019-04-30T09:02:49.328Z,95.40
2019-04-30T09:05:19.665Z,94.80
2019-04-30T09:07:48.718Z,94.20
2019-04-30T09:10:19.163Z,93.20
2019-04-30T09:12:49.599Z,93.80
2019-04-30T09:15:18.843Z,93.90
2019-04-30T09:17:58.954Z,94.70
2019-04-30T09:20:19.406Z,95.90
2019-04-30T09:22:49.599Z,94.10
2019-04-30T09:25:19.450Z,93.70
2019-04-30T09:27:48.823Z,93.80
2019-04-30T09:30:18.911Z,94.50
2019-04-30T09:32:47.524Z,94.20
2019-04-30T09:35:16.015Z,93.80
2019-04-30T09:37:44.481Z,94.20
2019-04-30T09:40:18.353Z,93.80
2019-04-30T09:42:43.648Z,92.60
2019-04-30T09:45:12.245Z,91.20
2019-04-30T09:47:42.096Z,91.80
2019-04-30T09:50:12.417Z,92.40
2019-04-30T09:52:41.210Z,91.30
2019-04-30T09:55:10.241Z,90.60
2019-04-30T09:57:39.121Z,89.20
2019-04-30T10:00:09.960Z,87.00
2019-04-30T10:02:38.973Z,86.60
2019-04-30T10:05:08.932Z,86.60
2019-04-30T10:07:39.353Z,88.70
2019-04-30T10:10:11.382Z,85.60
2019-04-30T10:12:39.959Z,86.50
2019-04-30T10:15:10.907Z,84.90
2019-04-30T10:17:44.079Z,84.60
2019-04-30T10:20:13.687Z,83.30
2019-04-30T10:22:42.216Z,83.10
2019-04-30T10:25:11.454Z,87.50
2019-04-30T10:27:40.019Z,86.70
2019-04-30T10:30:10.787Z,83.70
2019-04-30T10:32:39.257Z,83.20
2019-04-30T10:35:08.249Z,84.60
2019-04-30T10:37:38.605Z,82.00
2019-04-30T10:40:10.522Z,82.60
2019-04-30T10:42:39.338Z,84.00
2019-04-30T10:45:09.822Z,83.90
2019-04-30T10:47:39.316Z,83.30
2019-04-30T10:50:09.949Z,82.30
2019-04-30T10:52:39.318Z,81.40
2019-04-30T10:55:09.394Z,85.90
2019-04-30T10:57:39.613Z,85.30
2019-04-30T11:00:13.627Z,82.90
2019-04-30T11:02:43.563Z,80.90
2019-04-30T11:05:13.280Z,77.80
2019-04-30T11:07:41.887Z,77.60
2019-04-30T11:10:11.490Z,79.50
2019-04-30T11:12:39.941Z,81.90
2019-04-30T11:15:09.476Z,83.60
2019-04-30T11:17:39.703Z,80.90
2019-04-30T11:20:10.215Z,82.80
2019-04-30T11:22:38.680Z,83.90
2019-04-30T11:25:09.774Z,86.00
2019-04-30T11:27:40.300Z,84.80
2019-04-30T11:30:20.782Z,81.60
2019-04-30T11:32:39.300Z,80.00
2019-04-30T11:35:08.162Z,80.50
2019-04-30T11:37:36.823Z,77.10
2019-04-30T11:40:09.125Z,75.40
2019-04-30T11:42:37.553Z,78.00
2019-04-30T11:45:08.591Z,78.70
2019-04-30T11:47:38.749Z,81.80
2019-04-30T11:50:09.468Z,79.70
2019-04-30T11:52:38.023Z,78.90
2019-04-30T11:55:09.632Z,77.30
2019-04-30T11:57:39.725Z,75.70
2019-04-30T12:00:12.789Z,78.00
2019-04-30T12:02:41.594Z,75.00
2019-04-30T12:05:11.119Z,79.40
2019-04-30T12:07:48.320Z,82.40
2019-04-30T12:10:21.623Z,80.60
2019-04-30T12:12:50.132Z,80.50
2019-04-30T12:15:19.252Z,79.80
2019-04-30T12:17:47.847Z,76.60
2019-04-30T12:20:16.664Z,77.40
2019-04-30T12:22:45.118Z,77.00
2019-04-30T12:25:13.706Z,73.80
2019-04-30T12:27:42.149Z,72.90
2019-04-30T12:30:11.155Z,78.30
2019-04-30T12:32:39.626Z,76.80
2019-04-30T12:35:08.706Z,73.50
2019-04-30T12:37:38.970Z,76.00
2019-04-30T12:40:09.528Z,73.70
2019-04-30T12:42:38.621Z,74.90
2019-04-30T12:45:09.480Z,76.10
2019-04-30T12:47:40.092Z,74.80
2019-04-30T12:50:13.210Z,78.00
2019-04-30T12:52:43.422Z,77.10
2019-04-30T12:55:25.136Z,76.10
2019-04-30T12:57:58.716Z,74.50
2019-04-30T13:00:25.694Z,73.80
2019-04-30T13:02:54.169Z,73.30
2019-04-30T13:05:22.651Z,73.10
2019-04-30T13:07:51.657Z,72.20
2019-04-30T13:10:21.433Z,69.20
2019-04-30T13:12:50.936Z,70.50
2019-04-30T13:15:19.830Z,66.70
2019-04-30T13:17:50.095Z,67.50
2019-04-30T13:20:23.789Z,70.60
2019-04-30T13:22:49.098Z,70.00
2019-04-30T13:25:30.004Z,69.90
2019-04-30T13:27:51.094Z,68.60
2019-04-30T13:30:23.242Z,68.80
2019-04-30T13:33:11.599Z,68.80
2019-04-30T13:35:40.133Z,66.70
2019-04-30T13:38:10.239Z,68.70
2019-04-30T13:40:40.319Z,67.60
2019-04-30T13:43:10.456Z,68.00
2019-04-30T13:45:38.966Z,62.50
2019-04-30T13:48:08.916Z,65.30
2019-04-30T13:50:39.135Z,67.10
2019-04-30T13:53:08.883Z,68.80
2019-04-30T13:55:45.489Z,69.00
2019-04-30T13:58:07.674Z,68.50
2019-04-30T14:00:36.213Z,69.60
2019-04-30T14:03:06.356Z,69.40
2019-04-30T14:05:34.855Z,66.00
2019-04-30T14:08:16.711Z,63.60
2019-04-30T14:10:45.330Z,63.40
2019-04-30T14:13:14.534Z,65.70
2019-04-30T14:15:44.168Z,66.30
2019-04-30T14:18:12.773Z,66.60
2019-04-30T14:20:41.226Z,66.30
2019-04-30T14:23:10.703Z,66.10
2019-04-30T14:25:39.498Z,66.50
2019-04-30T14:28:09.436Z,67.10
2019-04-30T14:30:39.241Z,67.70
2019-04-30T14:33:09.483Z,66.80
2019-04-30T14:35:38.605Z,65.30
2019-04-30T14:38:08.894Z,65.20
2019-04-30T14:40:40.159Z,66.20
2019-04-30T14:43:25.041Z,65.50
2019-04-30T14:46:12.504Z,65.00
2019-04-30T14:48:46.296Z,63.80
2019-04-30T14:51:15.469Z,64.80
2019-04-30T14:53:49.020Z,65.60
2019-04-30T14:56:19.659Z,64.40
2019-04-30T14:58:58.902Z,64.20
2019-04-30T15:01:31.546Z,65.70
2019-04-30T15:04:00.203Z,66.30
2019-04-30T15:06:28.714Z,65.90
2019-04-30T15:08:59.047Z,66.20
2019-04-30T15:11:28.859Z,65.10
2019-04-30T15:13:59.134Z,65.00
2019-04-30T15:16:28.380Z,64.60
2019-04-30T15:18:56.826Z,65.80
2019-04-30T15:21:25.363Z,65.00
2019-04-30T15:24:01.389Z,64.90
2019-04-30T15:26:28.835Z,66.60
2019-04-30T15:28:59.881Z,65.80
2019-04-30T15:31:29.591Z,65.30
2019-04-30T15:34:02.950Z,65.40
2019-04-30T15:36:29.826Z,65.20
2019-04-30T15:39:11.971Z,66.00
2019-04-30T15:41:40.493Z,66.70
2019-04-30T15:44:09.405Z,65.70
2019-04-30T15:46:37.879Z,65.50
2019-04-30T15:49:06.353Z,64.00
2019-04-30T15:51:34.797Z,65.00
2019-04-30T15:54:03.566Z,65.60
2019-04-30T15:56:36.980Z,65.30
2019-04-30T15:59:20.126Z,65.60
2019-04-30T16:01:50.247Z,65.20
2019-04-30T16:04:20.406Z,65.20
2019-04-30T16:06:49.210Z,65.10
2019-04-30T16:09:25.243Z,63.40
2019-04-30T16:11:55.352Z,65.00
2019-04-30T16:14:25.470Z,65.00
2019-04-30T16:16:55.571Z,65.40
2019-04-30T16:19:24.125Z,65.40
2019-04-30T16:21:52.558Z,66.20
2019-04-30T16:24:21.001Z,66.00
2019-04-30T16:26:52.631Z,66.40
2019-04-30T16:29:19.632Z,66.80
2019-04-30T16:31:49.465Z,67.60
2019-04-30T16:34:18.016Z,68.50
2019-04-30T16:36:46.482Z,67.10
2019-04-30T16:39:15.086Z,67.00
2019-04-30T16:41:43.573Z,67.20
2019-04-30T16:44:12.122Z,66.60
2019-04-30T16:46:40.559Z,67.30
2019-04-30T16:49:10.500Z,66.30
2019-04-30T16:51:39.344Z,66.90
2019-04-30T16:54:08.640Z,67.60
2019-04-30T16:56:38.690Z,67.40
2019-04-30T16:59:09.266Z,68.50
2019-04-30T17:01:37.742Z,68.50
2019-04-30T17:04:09.077Z,68.50
2019-04-30T17:06:45.173Z,68.70
2019-04-30T17:09:17.778Z,69.30
2019-04-30T17:12:04.253Z,70.00
2019-04-30T17:14:34.366Z,69.10
2019-04-30T17:17:02.839Z,70.20
2019-04-30T17:19:31.323Z,70.50
2019-04-30T17:21:59.757Z,70.80
2019-04-30T17:24:30.102Z,71.00
2019-04-30T17:26:59.253Z,70.90
2019-04-30T17:29:27.903Z,71.30
2019-04-30T17:31:56.514Z,71.70
2019-04-30T17:34:24.977Z,72.10
2019-04-30T17:36:53.454Z,72.30
2019-04-30T17:39:22.456Z,71.90
2019-04-30T17:41:50.927Z,71.60
2019-04-30T17:44:19.402Z,71.80
2019-04-30T17:46:49.722Z,71.60
2019-04-30T17:49:18.956Z,71.90
2019-04-30T17:51:49.130Z,72.40
2019-04-30T17:54:17.781Z,72.40
2019-04-30T17:56:46.504Z,72.90
2019-04-30T17:59:15.245Z,73.40
2019-04-30T18:01:45.345Z,73.70
2019-04-30T18:04:13.949Z,73.60
2019-04-30T18:06:42.427Z,73.50
2019-04-30T18:09:11.146Z,74.30
2019-04-30T18:11:39.705Z,74.80
2019-04-30T18:14:08.804Z,75.10
2019-04-30T18:16:38.641Z,75.90
2019-04-30T18:19:18.675Z,76.40
2019-04-30T18:21:49.077Z,76.00
2019-04-30T18:24:22.011Z,76.70
2019-04-30T18:26:54.877Z,77.30
2019-04-30T18:29:23.345Z,77.90
2019-04-30T18:31:51.930Z,78.60
2019-04-30T18:34:20.397Z,79.00
2019-04-30T18:36:51.201Z,79.20
2019-04-30T18:39:19.129Z,79.70
2019-04-30T18:41:47.591Z,79.60
2019-04-30T18:44:16.138Z,80.00
2019-04-30T18:46:44.650Z,80.20
2019-04-30T18:49:15.599Z,80.50
2019-04-30T18:51:45.707Z,80.70
2019-04-30T18:54:14.725Z,80.50
2019-04-30T18:56:43.694Z,81.10
2019-04-30T18:59:12.327Z,81.30
2019-04-30T19:01:44.025Z,81.50
2019-04-30T19:04:12.688Z,81.40
2019-04-30T19:06:43.839Z,81.70
2019-04-30T19:09:30.629Z,82.30
2019-04-30T19:12:19.946Z,82.70
2019-04-30T19:14:53.098Z,83.30
2019-04-30T19:17:29.588Z,83.50
2019-04-30T19:19:59.787Z,83.60
2019-04-30T19:22:28.645Z,83.70
2019-04-30T19:24:59.484Z,83.50
2019-04-30T19:27:29.512Z,84.00
2019-04-30T19:29:59.431Z,85.10
2019-04-30T19:32:30.290Z,86.00
2019-04-30T19:34:59.075Z,86.80
2019-04-30T19:37:27.617Z,88.00
2019-04-30T19:39:56.087Z,88.50
2019-04-30T19:42:24.552Z,89.00
2019-04-30T19:45:00.658Z,89.20
2019-04-30T19:47:23.286Z,89.60
2019-04-30T19:49:51.749Z,90.00
2019-04-30T19:52:20.235Z,90.20
2019-04-30T19:54:48.884Z,90.40
2019-04-30T19:57:18.996Z,90.70
2019-04-30T19:59:49.154Z,91.00
2019-04-30T20:02:19.087Z,91.30
2019-04-30T20:04:48.070Z,91.50
2019-04-30T20:07:16.540Z,91.70
2019-04-30T20:09:57.273Z,91.90
2019-04-30T20:12:15.159Z,92.10
2019-04-30T20:14:43.710Z,92.50
2019-04-30T20:17:13.175Z,92.90
2019-04-30T20:19:41.863Z,92.90
2019-04-30T20:22:10.439Z,93.10
2019-04-30T20:24:39.459Z,93.60
2019-04-30T20:27:10.105Z,94.10
2019-04-30T20:29:38.235Z,94.60
2019-04-30T20:32:08.540Z,94.90
2019-04-30T20:34:39.112Z,95.00
2019-04-30T20:37:08.642Z,95.00
2019-04-30T20:39:44.653Z,95.00
2019-04-30T20:42:13.181Z,95.00
2019-04-30T20:44:41.657Z,95.10
2019-04-30T20:47:10.172Z,95.10
2019-04-30T20:49:39.132Z,94.80
2019-04-30T20:52:07.865Z,94.60
2019-04-30T20:54:36.376Z,94.50
2019-04-30T20:57:04.961Z,94.30
2019-04-30T20:59:33.666Z,94.50
2019-04-30T21:02:02.301Z,94.50
2019-04-30T21:04:30.788Z,94.80
2019-04-30T21:06:59.576Z,94.70
2019-04-30T21:09:28.074Z,94.90
2019-04-30T21:11:58.694Z,95.20
2019-04-30T21:14:26.701Z,95.50
2019-04-30T21:16:56.207Z,96.00
2019-04-30T21:19:26.554Z,96.30
2019-04-30T21:21:55.026Z,96.50
2019-04-30T21:24:23.483Z,96.80
2019-04-30T21:26:52.003Z,96.90
2019-04-30T21:29:20.485Z,97.20
2019-04-30T21:31:50.782Z,97.30
2019-04-30T21:34:26.499Z,97.50
2019-04-30T21:36:55.083Z,97.70
2019-04-30T21:39:23.550Z,97.80
2019-04-30T21:41:52.030Z,97.80
2019-04-30T21:44:20.495Z,97.90
2019-04-30T21:46:48.925Z,97.90
2019-04-30T21:49:17.396Z,98.00
2019-04-30T21:51:45.941Z,98.00
2019-04-30T21:54:14.389Z,98.20
2019-04-30T21:56:42.851Z,98.40
2019-04-30T21:59:23.563Z,98.40
2019-04-30T22:01:41.773Z,98.40
2019-04-30T22:04:10.346Z,98.80
2019-04-30T22:06:39.465Z,98.90
2019-04-30T22:09:09.978Z,98.90
2019-04-30T22:11:39.474Z,98.80
2019-04-30T22:14:08.210Z,98.80
2019-04-30T22:16:36.751Z,99.00
2019-04-30T22:19:05.262Z,99.40
2019-04-30T22:21:33.745Z,99.90
2019-04-30T22:24:02.191Z,99.80
2019-04-30T22:26:30.626Z,99.90
2019-04-30T22:28:59.380Z,99.90
2019-04-30T22:31:29.654Z,99.90
2019-04-30T22:33:58.929Z,99.90
2019-04-30T22:36:29.214Z,99.90
2019-04-30T22:39:15.571Z,99.90
2019-04-30T22:41:44.055Z,99.90
2019-04-30T22:44:12.552Z,99.90
2019-04-30T22:46:41.018Z,99.70
2019-04-30T22:49:09.557Z,99.70
2019-04-30T22:51:38.106Z,99.70
2019-04-30T22:54:06.550Z,99.60
2019-04-30T22:56:35.042Z,99.90
2019-04-30T22:59:03.722Z,99.90
2019-04-30T23:01:36.516Z,99.90
2019-04-30T23:04:09.549Z,99.90
2019-04-30T23:06:43.323Z,99.90
2019-04-30T23:09:13.666Z,99.90
2019-04-30T23:11:42.747Z,99.90
2019-04-30T23:14:11.402Z,99.90
2019-04-30T23:16:39.961Z,99.90
2019-04-30T23:19:08.518Z,99.90
2019-04-30T23:21:36.969Z,99.90
2019-04-30T23:24:05.422Z,99.90
2019-04-30T23:26:33.867Z,99.90
2019-04-30T23:29:02.335Z,99.90
2019-04-30T23:31:30.766Z,99.90
2019-04-30T23:33:59.280Z,99.90
2019-04-30T23:36:27.749Z,99.90
2019-04-30T23:38:56.214Z,99.90
2019-04-30T23:41:24.661Z,99.90
2019-04-30T23:43:55.023Z,99.90
2019-04-30T23:46:23.408Z,99.90
2019-04-30T23:48:52.249Z,99.90
2019-04-30T23:51:20.747Z,99.90
2019-04-30T23:53:49.216Z,99.90
2019-04-30T23:56:17.657Z,99.90
2019-04-30T23:58:46.134Z,99.90
